createdAt,value
2018-09-21T00:00:51.772Z,0.00
2018-09-21T00:01:52.390Z,0.00
2018-09-21T00:02:53.004Z,0.00
2018-09-21T00:03:53.625Z,0.00
2018-09-21T00:04:54.240Z,0.00
2018-09-21T00:05:54.859Z,0.00
2018-09-21T00:06:55.478Z,0.00
2018-09-21T00:07:56.096Z,0.00
2018-09-21T00:07:57.202Z,0.00
2018-09-21T00:09:56.718Z,0.00
2018-09-21T00:10:57.335Z,0.00
2018-09-21T00:11:57.957Z,0.00
2018-09-21T00:12:58.564Z,0.00
2018-09-21T00:13:59.177Z,0.00
2018-09-21T00:14:59.792Z,0.00
2018-09-21T00:16:00.411Z,0.00
2018-09-21T00:17:01.022Z,0.00
2018-09-21T00:18:01.638Z,0.00
2018-09-21T00:19:02.255Z,0.00
2018-09-21T00:20:02.867Z,0.00
2018-09-21T00:21:03.517Z,0.00
2018-09-21T00:22:04.131Z,0.00
2018-09-21T00:23:04.747Z,0.00
2018-09-21T00:24:05.368Z,0.00
2018-09-21T00:25:05.976Z,0.00
2018-09-21T00:26:06.638Z,0.00
2018-09-21T00:27:07.290Z,0.00
2018-09-21T00:28:07.867Z,0.00
2018-09-21T00:29:08.479Z,0.00
2018-09-21T00:30:09.110Z,0.00
2018-09-21T00:31:09.721Z,0.00
2018-09-21T00:32:10.333Z,0.00
2018-09-21T00:33:10.949Z,0.00
2018-09-21T00:34:11.569Z,0.00
2018-09-21T00:35:12.187Z,0.00
2018-09-21T00:36:12.802Z,0.00
2018-09-21T00:37:13.416Z,0.00
2018-09-21T00:38:14.038Z,0.00
2018-09-21T00:39:14.650Z,0.00
2018-09-21T00:40:15.283Z,0.00
2018-09-21T00:41:15.897Z,0.00
2018-09-21T00:42:16.510Z,0.00
2018-09-21T00:43:17.130Z,0.00
2018-09-21T00:44:17.753Z,0.00
2018-09-21T00:45:18.376Z,0.00
2018-09-21T00:46:18.991Z,0.00
2018-09-21T00:47:19.608Z,0.00
2018-09-21T00:48:20.227Z,0.00
2018-09-21T00:49:20.849Z,0.00
2018-09-21T00:50:21.469Z,0.00
2018-09-21T00:51:22.095Z,0.00
2018-09-21T00:52:22.717Z,0.00
2018-09-21T00:53:23.334Z,0.00
2018-09-21T00:54:23.950Z,0.00
2018-09-21T00:55:24.568Z,0.00
2018-09-21T00:56:25.180Z,0.00
2018-09-21T00:57:25.793Z,0.00
2018-09-21T00:58:26.413Z,0.00
2018-09-21T00:59:27.033Z,0.00
2018-09-21T01:00:27.699Z,0.00
2018-09-21T01:01:28.267Z,0.00
2018-09-21T01:02:28.881Z,0.00
2018-09-21T01:03:29.493Z,0.00
2018-09-21T01:04:30.116Z,0.00
2018-09-21T01:05:30.725Z,0.00
2018-09-21T01:06:31.342Z,0.00
2018-09-21T01:07:32.011Z,0.00
2018-09-21T01:08:32.618Z,0.00
2018-09-21T01:09:33.234Z,0.00
2018-09-21T01:10:34.002Z,0.00
2018-09-21T01:11:34.598Z,0.00
2018-09-21T01:12:35.221Z,0.00
2018-09-21T01:13:35.828Z,0.00
2018-09-21T01:14:36.444Z,0.00
2018-09-21T01:15:37.066Z,0.00
2018-09-21T01:16:37.676Z,0.00
2018-09-21T01:17:38.301Z,0.00
2018-09-21T01:18:38.916Z,0.00
2018-09-21T01:19:39.542Z,0.00
2018-09-21T01:19:40.664Z,0.00
2018-09-21T01:21:40.180Z,0.00
2018-09-21T01:22:40.794Z,0.00
2018-09-21T01:23:41.405Z,0.00
2018-09-21T01:24:42.028Z,0.00
2018-09-21T01:25:42.643Z,0.00
2018-09-21T01:26:45.152Z,0.00
2018-09-21T01:27:45.729Z,0.00
2018-09-21T01:28:46.336Z,0.00
2018-09-21T01:29:46.952Z,0.00
2018-09-21T01:30:47.572Z,0.00
2018-09-21T01:31:48.180Z,0.00
2018-09-21T01:32:48.803Z,0.00
2018-09-21T01:33:49.408Z,0.00
2018-09-21T01:34:50.027Z,0.00
2018-09-21T01:35:50.645Z,0.00
2018-09-21T01:36:51.266Z,0.00
2018-09-21T01:37:51.880Z,0.00
2018-09-21T01:38:52.494Z,0.00
2018-09-21T01:39:53.116Z,0.00
2018-09-21T01:40:53.723Z,0.00
2018-09-21T01:41:54.338Z,0.00
2018-09-21T01:42:54.952Z,0.00
2018-09-21T01:43:55.570Z,0.00
2018-09-21T01:44:56.235Z,0.00
2018-09-21T01:45:56.846Z,0.00
2018-09-21T01:46:57.470Z,0.00
2018-09-21T01:47:58.086Z,0.00
2018-09-21T01:48:58.698Z,0.00
2018-09-21T01:49:59.314Z,0.00
2018-09-21T01:50:59.926Z,0.00
2018-09-21T01:52:00.542Z,0.00
2018-09-21T01:53:01.161Z,0.00
2018-09-21T01:54:01.773Z,0.00
2018-09-21T01:55:02.388Z,0.00
2018-09-21T01:56:03.003Z,0.00
2018-09-21T01:57:03.618Z,0.00
2018-09-21T01:58:04.234Z,0.00
2018-09-21T01:59:04.855Z,0.00
2018-09-21T02:00:05.477Z,0.00
2018-09-21T02:01:06.082Z,0.00
2018-09-21T02:02:06.717Z,0.00
2018-09-21T02:03:10.119Z,0.00
2018-09-21T02:04:10.728Z,0.00
2018-09-21T02:05:11.353Z,0.00
2018-09-21T02:06:11.968Z,0.00
2018-09-21T02:07:12.589Z,0.00
2018-09-21T02:08:13.206Z,0.00
2018-09-21T02:09:13.823Z,0.00
2018-09-21T02:10:14.450Z,0.00
2018-09-21T02:11:15.058Z,0.00
2018-09-21T02:12:15.672Z,0.00
2018-09-21T02:13:16.326Z,0.00
2018-09-21T02:14:16.942Z,0.00
2018-09-21T02:15:17.600Z,0.00
2018-09-21T02:16:18.171Z,0.00
2018-09-21T02:17:18.789Z,0.00
2018-09-21T02:18:19.408Z,0.00
2018-09-21T02:19:20.030Z,0.00
2018-09-21T02:20:20.638Z,0.00
2018-09-21T02:21:21.255Z,0.00
2018-09-21T02:22:21.875Z,0.00
2018-09-21T02:23:22.486Z,0.00
2018-09-21T02:24:23.101Z,0.00
2018-09-21T02:25:23.718Z,0.00
2018-09-21T02:26:24.335Z,0.00
2018-09-21T02:27:24.953Z,0.00
2018-09-21T02:28:25.565Z,0.00
2018-09-21T02:29:26.193Z,0.00
2018-09-21T02:30:26.819Z,0.00
2018-09-21T02:31:27.445Z,0.00
2018-09-21T02:31:28.545Z,0.00
2018-09-21T02:33:28.074Z,0.00
2018-09-21T02:34:28.740Z,0.00
2018-09-21T02:35:29.350Z,0.00
2018-09-21T02:36:29.962Z,0.00
2018-09-21T02:37:30.585Z,0.00
2018-09-21T02:38:31.214Z,0.00
2018-09-21T02:39:31.827Z,0.00
2018-09-21T02:40:32.448Z,0.00
2018-09-21T02:41:33.155Z,0.00
2018-09-21T02:42:33.735Z,0.00
2018-09-21T02:43:34.308Z,0.00
2018-09-21T02:44:34.931Z,0.00
2018-09-21T02:45:35.559Z,0.00
2018-09-21T02:46:36.169Z,0.00
2018-09-21T02:47:36.788Z,0.00
2018-09-21T02:48:37.406Z,0.00
2018-09-21T02:49:38.035Z,0.00
2018-09-21T02:50:38.644Z,0.00
2018-09-21T02:51:39.262Z,0.00
2018-09-21T02:52:39.879Z,0.00
2018-09-21T02:53:40.495Z,0.00
2018-09-21T02:54:41.119Z,0.00
2018-09-21T02:55:41.724Z,0.00
2018-09-21T02:56:42.348Z,0.00
2018-09-21T02:57:42.961Z,0.00
2018-09-21T02:58:43.577Z,0.00
2018-09-21T02:59:44.192Z,0.00
2018-09-21T03:00:45.021Z,0.00
2018-09-21T03:01:45.436Z,0.00
2018-09-21T03:02:46.045Z,0.00
2018-09-21T03:03:46.663Z,0.00
2018-09-21T03:04:47.279Z,0.00
2018-09-21T03:05:47.894Z,0.00
2018-09-21T03:06:48.508Z,0.00
2018-09-21T03:07:49.129Z,0.00
2018-09-21T03:08:49.747Z,0.00
2018-09-21T03:09:50.361Z,0.00
2018-09-21T03:10:50.976Z,0.00
2018-09-21T03:11:51.593Z,0.00
2018-09-21T03:12:52.208Z,0.00
2018-09-21T03:13:52.822Z,0.00
2018-09-21T03:14:53.434Z,0.00
2018-09-21T03:15:54.055Z,0.00
2018-09-21T03:16:54.682Z,0.00
2018-09-21T03:17:55.343Z,0.00
2018-09-21T03:18:55.911Z,0.00
2018-09-21T03:19:56.547Z,0.00
2018-09-21T03:20:57.145Z,0.00
2018-09-21T03:21:57.755Z,0.00
2018-09-21T03:22:58.374Z,0.00
2018-09-21T03:23:58.987Z,0.00
2018-09-21T03:24:59.611Z,0.00
2018-09-21T03:26:00.226Z,0.00
2018-09-21T03:27:00.850Z,0.00
2018-09-21T03:28:01.475Z,0.00
2018-09-21T03:29:02.098Z,0.00
2018-09-21T03:30:02.717Z,0.00
2018-09-21T03:31:03.336Z,0.00
2018-09-21T03:32:03.954Z,0.00
2018-09-21T03:33:04.578Z,0.00
2018-09-21T03:34:05.192Z,0.00
2018-09-21T03:35:05.870Z,0.00
2018-09-21T03:36:06.437Z,0.00
2018-09-21T03:37:07.061Z,0.00
2018-09-21T03:38:07.681Z,0.00
2018-09-21T03:39:08.289Z,0.00
2018-09-21T03:40:08.899Z,0.00
2018-09-21T03:41:09.515Z,0.00
2018-09-21T03:42:10.129Z,0.00
2018-09-21T03:43:10.752Z,0.00
2018-09-21T03:44:11.377Z,0.00
2018-09-21T03:45:11.996Z,0.00
2018-09-21T03:46:12.639Z,0.00
2018-09-21T03:47:13.267Z,0.00
2018-09-21T03:48:13.868Z,0.00
2018-09-21T03:49:14.480Z,0.00
2018-09-21T03:50:15.103Z,0.00
2018-09-21T03:51:15.719Z,0.00
2018-09-21T03:52:16.344Z,0.00
2018-09-21T03:53:16.963Z,0.00
2018-09-21T03:54:17.581Z,0.00
2018-09-21T03:55:18.201Z,0.00
2018-09-21T03:56:18.885Z,0.00
2018-09-21T03:57:19.496Z,0.00
2018-09-21T03:58:20.125Z,0.00
2018-09-21T03:59:20.734Z,0.00
2018-09-21T04:00:21.346Z,0.00
2018-09-21T04:01:21.969Z,0.00
2018-09-21T04:02:22.583Z,0.00
2018-09-21T04:03:23.205Z,0.00
2018-09-21T04:04:23.817Z,0.00
2018-09-21T04:05:24.434Z,0.00
2018-09-21T04:06:25.054Z,0.00
2018-09-21T04:07:25.677Z,0.00
2018-09-21T04:08:26.284Z,0.00
2018-09-21T04:09:26.901Z,0.00
2018-09-21T04:10:27.514Z,0.00
2018-09-21T04:11:28.161Z,0.00
2018-09-21T04:12:28.746Z,0.00
2018-09-21T04:13:29.363Z,0.00
2018-09-21T04:14:29.975Z,0.00
2018-09-21T04:15:30.591Z,0.00
2018-09-21T04:16:31.211Z,0.00
2018-09-21T04:17:31.822Z,0.00
2018-09-21T04:18:32.439Z,0.00
2018-09-21T04:19:33.053Z,0.00
2018-09-21T04:20:33.667Z,0.00
2018-09-21T04:21:34.294Z,0.00
2018-09-21T04:22:34.903Z,0.00
2018-09-21T04:23:35.514Z,0.00
2018-09-21T04:24:36.129Z,0.00
2018-09-21T04:25:36.746Z,0.00
2018-09-21T04:26:37.361Z,0.00
2018-09-21T04:27:37.979Z,0.00
2018-09-21T04:28:38.593Z,0.00
2018-09-21T04:29:39.214Z,0.00
2018-09-21T04:30:39.830Z,0.00
2018-09-21T04:31:40.486Z,0.00
2018-09-21T04:32:41.076Z,0.00
2018-09-21T04:33:41.691Z,0.00
2018-09-21T04:34:42.306Z,0.00
2018-09-21T04:35:42.916Z,0.00
2018-09-21T04:36:43.529Z,0.00
2018-09-21T04:37:44.155Z,0.00
2018-09-21T04:38:44.770Z,0.00
2018-09-21T04:39:45.382Z,0.00
2018-09-21T04:40:45.997Z,0.00
2018-09-21T04:41:46.619Z,0.00
2018-09-21T04:42:47.276Z,0.00
2018-09-21T04:43:47.846Z,0.00
2018-09-21T04:44:48.462Z,0.00
2018-09-21T04:45:49.198Z,0.00
2018-09-21T04:46:49.690Z,0.00
2018-09-21T04:47:50.311Z,0.00
2018-09-21T04:48:50.934Z,0.00
2018-09-21T04:49:51.558Z,0.00
2018-09-21T04:50:52.170Z,0.00
2018-09-21T04:51:52.791Z,0.00
2018-09-21T04:52:53.401Z,0.00
2018-09-21T04:53:54.017Z,0.00
2018-09-21T04:53:55.133Z,0.00
2018-09-21T04:55:54.649Z,0.00
2018-09-21T04:56:55.268Z,0.00
2018-09-21T04:57:55.887Z,0.00
2018-09-21T04:58:56.497Z,0.00
2018-09-21T04:59:57.283Z,0.00
2018-09-21T05:00:57.728Z,0.00
2018-09-21T05:01:58.347Z,0.00
2018-09-21T05:02:58.961Z,0.00
2018-09-21T05:03:59.575Z,0.00
2018-09-21T05:05:00.194Z,0.00
2018-09-21T05:06:00.811Z,0.00
2018-09-21T05:07:01.428Z,0.00
2018-09-21T05:08:02.041Z,0.00
2018-09-21T05:09:02.654Z,0.00
2018-09-21T05:10:03.280Z,0.00
2018-09-21T05:11:03.899Z,0.00
2018-09-21T05:12:04.516Z,0.00
2018-09-21T05:13:05.134Z,0.00
2018-09-21T05:14:05.747Z,0.00
2018-09-21T05:15:06.365Z,0.00
2018-09-21T05:16:06.981Z,0.00
2018-09-21T05:17:07.601Z,0.00
2018-09-21T05:18:08.213Z,0.00
2018-09-21T05:19:08.827Z,0.00
2018-09-21T05:20:09.444Z,0.00
2018-09-21T05:21:10.113Z,0.00
2018-09-21T05:22:10.684Z,0.00
2018-09-21T05:23:11.297Z,0.00
2018-09-21T05:24:11.989Z,0.00
2018-09-21T05:25:12.563Z,0.00
2018-09-21T05:26:13.128Z,0.00
2018-09-21T05:27:13.746Z,0.00
2018-09-21T05:28:17.178Z,0.00
2018-09-21T05:29:17.793Z,0.00
2018-09-21T05:30:18.411Z,0.00
2018-09-21T05:31:19.026Z,0.00
2018-09-21T05:32:19.645Z,0.00
2018-09-21T05:33:20.260Z,0.00
2018-09-21T05:34:20.950Z,0.00
2018-09-21T05:35:21.497Z,0.00
2018-09-21T05:36:22.106Z,0.00
2018-09-21T05:37:22.723Z,0.00
2018-09-21T05:38:23.346Z,0.00
2018-09-21T05:39:23.967Z,0.00
2018-09-21T05:40:24.590Z,0.00
2018-09-21T05:41:25.209Z,0.00
2018-09-21T05:42:25.826Z,0.00
2018-09-21T05:43:26.440Z,0.00
2018-09-21T05:44:27.058Z,0.00
2018-09-21T05:45:27.673Z,0.00
2018-09-21T05:46:28.289Z,0.00
2018-09-21T05:47:28.912Z,0.00
2018-09-21T05:48:29.668Z,0.00
2018-09-21T05:49:30.270Z,0.00
2018-09-21T05:50:30.892Z,0.00
2018-09-21T05:51:31.509Z,0.00
2018-09-21T05:52:32.117Z,0.00
2018-09-21T05:53:32.739Z,0.00
2018-09-21T05:54:33.362Z,0.00
2018-09-21T05:55:33.978Z,0.00
2018-09-21T05:56:34.610Z,0.00
2018-09-21T05:57:35.238Z,0.00
2018-09-21T05:58:35.893Z,0.00
2018-09-21T05:59:36.470Z,0.00
2018-09-21T06:00:37.086Z,0.00
2018-09-21T06:01:37.724Z,0.00
2018-09-21T06:02:38.434Z,0.00
2018-09-21T06:03:39.005Z,0.00
2018-09-21T06:04:39.630Z,0.00
2018-09-21T06:05:40.277Z,0.00
2018-09-21T06:05:41.384Z,0.00
2018-09-21T06:07:40.946Z,0.00
2018-09-21T06:08:41.585Z,0.00
2018-09-21T06:09:42.212Z,0.00
2018-09-21T06:10:42.857Z,0.00
2018-09-21T06:11:43.493Z,0.00
2018-09-21T06:12:44.043Z,0.00
2018-09-21T06:13:44.699Z,0.00
2018-09-21T06:14:45.300Z,0.00
2018-09-21T06:15:45.879Z,0.00
2018-09-21T06:16:46.495Z,0.00
2018-09-21T06:17:47.141Z,0.00
2018-09-21T06:18:47.744Z,0.00
2018-09-21T06:19:48.407Z,0.00
2018-09-21T06:20:48.938Z,0.00
2018-09-21T06:21:49.588Z,0.00
2018-09-21T06:22:50.183Z,0.00
2018-09-21T06:23:50.787Z,0.00
2018-09-21T06:24:51.408Z,0.00
2018-09-21T06:25:52.086Z,0.00
2018-09-21T06:26:52.698Z,0.00
2018-09-21T06:27:53.341Z,0.00
2018-09-21T06:28:53.969Z,0.00
2018-09-21T06:29:54.604Z,0.00
2018-09-21T06:30:55.239Z,0.00
2018-09-21T06:31:55.914Z,0.00
2018-09-21T06:32:56.504Z,0.00
2018-09-21T06:33:57.100Z,0.00
2018-09-21T06:34:57.681Z,0.00
2018-09-21T06:35:58.300Z,0.00
2018-09-21T06:36:58.923Z,0.00
2018-09-21T06:37:59.543Z,0.00
2018-09-21T06:39:00.153Z,0.00
2018-09-21T06:40:00.782Z,0.00
2018-09-21T06:41:01.611Z,0.00
2018-09-21T06:42:02.129Z,0.00
2018-09-21T06:43:02.744Z,0.00
2018-09-21T06:44:03.423Z,0.00
2018-09-21T06:45:04.062Z,0.00
2018-09-21T06:46:04.641Z,0.00
2018-09-21T06:47:05.267Z,0.00
2018-09-21T06:48:05.908Z,0.00
2018-09-21T06:49:06.531Z,0.00
2018-09-21T06:50:07.172Z,0.00
2018-09-21T06:51:07.793Z,0.00
2018-09-21T06:52:08.376Z,0.00
2018-09-21T06:53:09.013Z,0.00
2018-09-21T06:54:09.616Z,0.00
2018-09-21T06:55:10.276Z,0.00
2018-09-21T06:56:10.925Z,0.00
2018-09-21T06:57:11.563Z,0.00
2018-09-21T06:58:12.217Z,0.00
2018-09-21T06:59:12.846Z,0.00
2018-09-21T07:00:13.502Z,0.00
2018-09-21T07:01:14.163Z,0.00
2018-09-21T07:02:14.766Z,0.00
2018-09-21T07:03:15.410Z,0.00
2018-09-21T07:04:16.051Z,0.00
2018-09-21T07:05:16.680Z,0.00
2018-09-21T07:06:17.348Z,0.00
2018-09-21T07:07:17.939Z,0.00
2018-09-21T07:08:18.541Z,0.00
2018-09-21T07:09:19.157Z,0.00
2018-09-21T07:10:19.779Z,0.00
2018-09-21T07:11:20.389Z,0.00
2018-09-21T07:12:21.011Z,0.00
2018-09-21T07:13:21.628Z,0.00
2018-09-21T07:14:22.247Z,0.00
2018-09-21T07:15:22.884Z,0.00
2018-09-21T07:16:23.499Z,0.00
2018-09-21T07:17:24.121Z,0.00
2018-09-21T07:17:25.228Z,0.00
2018-09-21T07:19:24.796Z,0.00
2018-09-21T07:20:25.426Z,0.00
2018-09-21T07:21:25.973Z,0.00
2018-09-21T07:22:26.593Z,0.00
2018-09-21T07:23:27.211Z,0.00
2018-09-21T07:24:27.819Z,0.00
2018-09-21T07:25:28.438Z,0.00
2018-09-21T07:26:29.056Z,0.00
2018-09-21T07:27:29.678Z,0.00
2018-09-21T07:28:30.317Z,0.00
2018-09-21T07:29:30.949Z,0.00
2018-09-21T07:30:31.531Z,0.00
2018-09-21T07:31:32.144Z,0.00
2018-09-21T07:32:32.764Z,0.00
2018-09-21T07:33:33.398Z,0.00
2018-09-21T07:34:33.999Z,0.00
2018-09-21T07:35:34.619Z,0.00
2018-09-21T07:36:35.245Z,0.00
2018-09-21T07:37:35.952Z,0.00
2018-09-21T07:38:36.550Z,0.00
2018-09-21T07:39:37.143Z,0.00
2018-09-21T07:40:37.763Z,0.00
2018-09-21T07:41:38.397Z,0.00
2018-09-21T07:42:39.064Z,0.00
2018-09-21T07:43:39.699Z,0.00
2018-09-21T07:44:40.267Z,0.00
2018-09-21T07:45:40.949Z,0.00
2018-09-21T07:46:41.548Z,0.00
2018-09-21T07:47:42.117Z,0.00
2018-09-21T07:48:42.737Z,0.00
2018-09-21T07:49:43.351Z,0.00
2018-09-21T07:50:43.977Z,0.00
2018-09-21T07:51:44.588Z,0.00
2018-09-21T07:52:45.210Z,0.00
2018-09-21T07:53:45.835Z,0.00
2018-09-21T07:54:46.451Z,0.00
2018-09-21T07:55:47.121Z,0.00
2018-09-21T07:56:47.667Z,0.00
2018-09-21T07:57:48.288Z,0.00
2018-09-21T07:58:48.910Z,0.00
2018-09-21T07:59:49.528Z,0.00
2018-09-21T08:00:50.151Z,0.00
2018-09-21T08:01:50.774Z,0.00
2018-09-21T08:02:51.396Z,0.00
2018-09-21T08:03:52.017Z,0.00
2018-09-21T08:04:52.665Z,0.00
2018-09-21T08:05:53.304Z,0.00
2018-09-21T08:06:53.938Z,0.00
2018-09-21T08:07:54.574Z,0.00
2018-09-21T08:08:55.281Z,0.00
2018-09-21T08:09:55.897Z,0.00
2018-09-21T08:10:56.518Z,0.00
2018-09-21T08:11:57.131Z,0.00
2018-09-21T08:12:57.848Z,0.00
2018-09-21T08:13:58.398Z,0.00
2018-09-21T08:14:59.025Z,0.00
2018-09-21T08:16:01.297Z,0.00
2018-09-21T08:17:01.962Z,0.00
2018-09-21T08:18:02.530Z,0.00
2018-09-21T08:19:03.148Z,0.00
2018-09-21T08:20:03.774Z,0.00
2018-09-21T08:21:04.394Z,0.00
2018-09-21T08:22:05.035Z,0.00
2018-09-21T08:23:05.618Z,0.00
2018-09-21T08:24:06.235Z,0.00
2018-09-21T08:25:06.955Z,0.00
2018-09-21T08:26:07.520Z,0.00
2018-09-21T08:27:08.152Z,0.00
2018-09-21T08:28:08.758Z,0.00
2018-09-21T08:29:09.364Z,0.00
2018-09-21T08:29:10.492Z,0.00
2018-09-21T08:31:10.048Z,0.00
2018-09-21T08:32:10.622Z,0.00
2018-09-21T08:33:11.292Z,0.00
2018-09-21T08:34:11.906Z,0.00
2018-09-21T08:35:12.538Z,0.00
2018-09-21T08:36:13.171Z,0.00
2018-09-21T08:37:13.938Z,0.00
2018-09-21T08:38:14.456Z,0.00
2018-09-21T08:39:15.088Z,0.00
2018-09-21T08:40:15.687Z,0.00
2018-09-21T08:41:16.315Z,0.00
2018-09-21T08:42:16.950Z,0.00
2018-09-21T08:43:17.640Z,0.00
2018-09-21T08:44:18.155Z,0.00
2018-09-21T08:45:18.766Z,0.00
2018-09-21T08:46:19.432Z,0.00
2018-09-21T08:47:20.370Z,0.00
2018-09-21T08:48:23.754Z,0.00
2018-09-21T08:49:24.405Z,0.00
2018-09-21T08:50:25.013Z,0.00
2018-09-21T08:51:25.706Z,0.00
2018-09-21T08:52:26.299Z,0.00
2018-09-21T08:53:26.921Z,0.00
2018-09-21T08:54:27.547Z,0.00
2018-09-21T08:55:28.165Z,0.00
2018-09-21T08:56:28.797Z,0.00
2018-09-21T08:57:29.432Z,0.00
2018-09-21T08:58:30.038Z,0.00
2018-09-21T08:59:30.701Z,0.00
2018-09-21T09:00:31.162Z,10.00
2018-09-21T09:01:31.607Z,100.00
2018-09-21T09:02:32.049Z,100.00
2018-09-21T09:03:32.599Z,94.00
2018-09-21T09:04:32.964Z,98.00
2018-09-21T09:05:33.406Z,99.00
2018-09-21T09:06:33.917Z,100.00
2018-09-21T09:07:34.541Z,100.00
2018-09-21T09:08:34.786Z,99.00
2018-09-21T09:09:35.313Z,99.00
2018-09-21T09:10:35.804Z,100.00
2018-09-21T09:11:36.248Z,100.00
2018-09-21T09:12:36.614Z,99.00
2018-09-21T09:13:38.821Z,100.00
2018-09-21T09:14:39.293Z,99.00
2018-09-21T09:15:40.610Z,100.00
2018-09-21T09:16:40.153Z,99.00
2018-09-21T09:17:43.367Z,100.00
2018-09-21T09:18:47.463Z,100.00
2018-09-21T09:22:26.440Z,100.00
2018-09-21T09:26:32.749Z,100.00
2018-09-21T09:30:27.946Z,99.00
2018-09-21T10:14:15.134Z,100.00
2018-09-21T10:15:22.633Z,100.00
2018-09-21T10:16:23.306Z,100.00
2018-09-21T10:17:26.051Z,100.00
2018-09-21T10:18:26.668Z,100.00
2018-09-21T10:19:26.250Z,100.00
2018-09-21T10:20:29.269Z,100.00
2018-09-21T10:21:33.790Z,100.00
2018-09-21T10:22:31.061Z,100.00
2018-09-21T10:23:31.058Z,100.00
2018-09-21T10:25:41.380Z,100.00
2018-09-21T10:26:40.525Z,100.00
2018-09-21T10:27:41.659Z,100.00
2018-09-21T10:28:42.903Z,100.00
2018-09-21T10:29:41.115Z,100.00
2018-09-21T10:30:41.270Z,100.00
2018-09-21T10:31:54.045Z,100.00
2018-09-21T10:32:54.714Z,100.00
2018-09-21T10:33:56.201Z,100.00
2018-09-21T10:34:56.206Z,100.00
2018-09-21T10:35:58.220Z,100.00
2018-09-21T10:36:57.142Z,100.00
2018-09-21T10:37:57.571Z,100.00
2018-09-21T10:38:58.721Z,100.00
2018-09-21T10:39:58.926Z,100.00
2018-09-21T10:40:59.727Z,100.00
2018-09-21T10:48:15.934Z,100.00
2018-09-21T10:49:17.254Z,100.00
2018-09-21T10:52:11.983Z,100.00
2018-09-21T10:56:07.272Z,100.00
2018-09-21T10:57:08.497Z,100.00
2018-09-21T11:00:03.933Z,100.00
2018-09-21T11:01:04.415Z,100.00
2018-09-21T11:02:04.211Z,100.00
2018-09-21T11:03:04.062Z,99.00
2018-09-21T11:04:05.094Z,100.00
2018-09-21T11:05:05.466Z,100.00
2018-09-21T11:09:12.270Z,100.00
2018-09-21T11:10:12.046Z,100.00
2018-09-21T11:13:05.886Z,100.00
2018-09-21T11:17:13.695Z,100.00
2018-09-21T11:18:15.540Z,100.00
2018-09-21T11:26:23.574Z,100.00
2018-09-21T11:27:22.392Z,100.00
2018-09-21T11:28:23.463Z,100.00
2018-09-21T11:29:23.526Z,100.00
2018-09-21T11:33:51.612Z,100.00
2018-09-21T11:37:53.662Z,100.00
2018-09-21T11:41:53.024Z,100.00
2018-09-21T11:42:52.812Z,100.00
2018-09-21T11:43:54.447Z,100.00
2018-09-21T11:44:55.518Z,100.00
2018-09-21T11:45:56.203Z,100.00
2018-09-21T11:46:57.208Z,100.00
2018-09-21T11:47:57.513Z,100.00
2018-09-21T11:48:58.914Z,100.00
2018-09-21T11:49:58.953Z,100.00
2018-09-21T11:50:58.931Z,100.00
2018-09-21T11:51:59.177Z,100.00
2018-09-21T11:53:01.117Z,100.00
2018-09-21T11:54:01.229Z,100.00
2018-09-21T11:55:00.203Z,100.00
2018-09-21T11:55:59.141Z,100.00
2018-09-21T11:57:01.991Z,100.00
2018-09-21T12:01:09.019Z,100.00
2018-09-21T12:02:09.893Z,100.00
2018-09-21T12:05:04.425Z,100.00
2018-09-21T12:06:06.512Z,100.00
2018-09-21T12:07:08.770Z,100.00
2018-09-21T12:08:08.833Z,100.00
2018-09-21T12:09:08.824Z,100.00
2018-09-21T12:10:08.501Z,100.00
2018-09-21T12:11:09.307Z,100.00
2018-09-21T12:12:10.481Z,36.00
2018-09-21T12:13:12.565Z,0.00
2018-09-21T12:14:12.421Z,4.00
2018-09-21T12:15:12.837Z,9.00
2018-09-21T12:16:14.090Z,0.00
2018-09-21T12:17:15.561Z,0.00
2018-09-21T12:18:15.871Z,0.00
2018-09-21T12:19:14.450Z,3.00
2018-09-21T12:20:14.814Z,34.00
2018-09-21T12:21:15.120Z,42.00
2018-09-21T12:22:15.847Z,41.00
2018-09-21T12:23:17.103Z,0.00
2018-09-21T12:24:17.531Z,0.00
2018-09-21T12:25:18.457Z,0.00
2018-09-21T12:26:19.154Z,0.00
2018-09-21T12:27:19.619Z,5.00
2018-09-21T12:28:20.193Z,97.00
2018-09-21T12:29:20.541Z,100.00
2018-09-21T12:30:22.037Z,100.00
2018-09-21T12:31:21.815Z,91.00
2018-09-21T12:34:56.209Z,0.00
2018-09-21T12:35:55.723Z,0.00
2018-09-21T12:38:53.689Z,0.00
2018-09-21T12:39:54.269Z,0.00
2018-09-21T12:42:52.364Z,0.00
2018-09-21T12:43:51.032Z,0.00
2018-09-21T12:47:54.180Z,0.00
2018-09-21T12:48:54.293Z,0.00
2018-09-21T12:49:55.796Z,0.00
2018-09-21T12:50:56.176Z,0.00
2018-09-21T12:51:56.188Z,0.00
2018-09-21T12:52:56.880Z,0.00
2018-09-21T12:53:58.216Z,0.00
2018-09-21T12:54:58.700Z,0.00
2018-09-21T12:55:58.280Z,0.00
2018-09-21T12:56:58.698Z,0.00
2018-09-21T12:57:59.871Z,0.00
2018-09-21T12:59:00.233Z,0.00
2018-09-21T13:00:01.235Z,0.00
2018-09-21T13:04:04.909Z,0.00
2018-09-21T13:05:05.703Z,0.00
2018-09-21T13:06:06.623Z,0.00
2018-09-21T13:07:07.011Z,0.00
2018-09-21T13:08:06.649Z,0.00
2018-09-21T13:09:08.102Z,0.00
2018-09-21T13:10:09.283Z,0.00
2018-09-21T13:11:09.456Z,0.00
2018-09-21T13:12:10.099Z,0.00
2018-09-21T13:13:11.494Z,0.00
2018-09-21T13:14:11.136Z,0.00
2018-09-21T13:15:11.034Z,0.00
2018-09-21T13:16:09.605Z,0.00
2018-09-21T13:17:09.837Z,0.00
2018-09-21T13:18:10.530Z,0.00
2018-09-21T13:19:11.783Z,0.00
2018-09-21T13:20:12.502Z,0.00
2018-09-21T13:21:13.006Z,0.00
2018-09-21T13:22:13.616Z,0.00
2018-09-21T13:23:14.275Z,0.00
2018-09-21T13:24:14.860Z,0.00
2018-09-21T13:25:15.510Z,0.00
2018-09-21T13:26:16.262Z,0.00
2018-09-21T13:27:16.746Z,0.00
2018-09-21T13:28:17.386Z,0.00
2018-09-21T13:29:17.908Z,0.00
2018-09-21T13:30:18.582Z,0.00
2018-09-21T13:31:19.975Z,0.00
2018-09-21T13:32:20.491Z,0.00
2018-09-21T13:33:22.011Z,0.00
2018-09-21T13:34:22.454Z,0.00
2018-09-21T13:35:23.025Z,0.00
2018-09-21T13:36:23.719Z,0.00
2018-09-21T13:37:24.228Z,0.00
2018-09-21T13:38:24.844Z,0.00
2018-09-21T13:39:25.562Z,0.00
2018-09-21T13:40:26.051Z,0.00
2018-09-21T13:41:26.708Z,0.00
2018-09-21T13:42:27.353Z,0.00
2018-09-21T13:43:27.980Z,0.00
2018-09-21T13:44:28.498Z,0.00
2018-09-21T13:45:29.181Z,0.00
2018-09-21T13:46:29.718Z,0.00
2018-09-21T13:47:30.332Z,0.00
2018-09-21T13:48:30.957Z,0.00
2018-09-21T13:49:31.890Z,0.00
2018-09-21T13:50:32.299Z,0.00
2018-09-21T13:51:32.946Z,0.00
2018-09-21T13:52:33.377Z,0.00
2018-09-21T13:53:33.994Z,0.00
2018-09-21T13:54:34.748Z,0.00
2018-09-21T13:55:35.239Z,0.00
2018-09-21T13:56:35.992Z,0.00
2018-09-21T13:57:36.507Z,0.00
2018-09-21T13:58:37.114Z,0.00
2018-09-21T13:59:37.752Z,0.00
2018-09-21T14:00:38.361Z,0.00
2018-09-21T14:01:38.884Z,0.00
2018-09-21T14:02:39.590Z,0.00
2018-09-21T14:03:40.140Z,0.00
2018-09-21T14:04:40.830Z,0.00
2018-09-21T14:05:41.382Z,0.00
2018-09-21T14:06:42.184Z,0.00
2018-09-21T14:07:42.621Z,0.00
2018-09-21T14:08:43.410Z,0.00
2018-09-21T14:09:43.774Z,0.00
2018-09-21T14:10:44.554Z,0.00
2018-09-21T14:11:45.036Z,0.00
2018-09-21T14:12:45.758Z,0.00
2018-09-21T14:13:46.213Z,0.00
2018-09-21T14:13:47.358Z,0.00
2018-09-21T14:15:46.880Z,0.00
2018-09-21T14:16:47.515Z,0.00
2018-09-21T14:17:48.452Z,0.00
2018-09-21T14:18:48.779Z,0.00
2018-09-21T14:19:49.436Z,0.00
2018-09-21T14:20:50.085Z,0.00
2018-09-21T14:21:50.719Z,0.00
2018-09-21T14:22:51.306Z,0.00
2018-09-21T14:23:51.871Z,0.00
2018-09-21T14:24:52.695Z,0.00
2018-09-21T14:25:53.241Z,0.00
2018-09-21T14:26:55.477Z,0.00
2018-09-21T14:27:56.894Z,0.00
2018-09-21T14:28:57.567Z,0.00
2018-09-21T14:29:58.841Z,0.00
2018-09-21T14:30:59.567Z,0.00
2018-09-21T14:32:00.049Z,0.00
2018-09-21T14:33:00.700Z,0.00
2018-09-21T14:34:01.722Z,0.00
2018-09-21T14:35:01.976Z,0.00
2018-09-21T14:36:02.601Z,0.00
2018-09-21T14:37:03.275Z,0.00
2018-09-21T14:38:03.772Z,0.00
2018-09-21T14:39:04.374Z,0.00
2018-09-21T14:40:05.017Z,0.00
2018-09-21T14:41:05.634Z,0.00
2018-09-21T14:42:06.247Z,0.00
2018-09-21T14:43:06.846Z,0.00
2018-09-21T14:44:07.579Z,0.00
2018-09-21T14:45:08.058Z,0.00
2018-09-21T14:46:08.705Z,0.00
2018-09-21T14:47:09.286Z,0.00
2018-09-21T14:48:09.946Z,0.00
2018-09-21T14:49:10.570Z,0.00
2018-09-21T14:50:11.124Z,0.00
2018-09-21T14:51:11.940Z,0.00
2018-09-21T14:52:12.460Z,0.00
2018-09-21T14:53:13.063Z,0.00
2018-09-21T14:54:13.891Z,0.00
2018-09-21T14:55:14.340Z,0.00
2018-09-21T14:56:14.950Z,0.00
2018-09-21T14:57:16.403Z,0.00
2018-09-21T14:58:16.975Z,0.00
2018-09-21T14:59:18.372Z,0.00
2018-09-21T15:00:19.075Z,0.00
2018-09-21T15:01:19.627Z,0.00
2018-09-21T15:02:20.223Z,0.00
2018-09-21T15:03:20.934Z,0.00
2018-09-21T15:04:21.528Z,0.00
2018-09-21T15:05:22.263Z,0.00
2018-09-21T15:06:22.834Z,0.00
2018-09-21T15:07:23.385Z,0.00
2018-09-21T15:08:24.058Z,0.00
2018-09-21T15:09:24.529Z,0.00